• Join FlightAware (Why Join?)
  • Login
  • US Flag 
02:52AM EDT


 

Airport Tracker/Info


-or-


 

Live Flight TrackerFlight Track Log ✈ SWA419 ✈ 19-Apr-2013 ✈ KBWI - KSAT

Flight Track Log - Related Links

Times and Time Zones

All times are in EDT time to prevent confusion due to time zone crossing. See the SWA419 flight status page for this flight to view local times or setup timezone preferences in your user account.

Time Position Orientation Groundspeed Altitude Reporting Facility
EDT Latitude Longitude Course Direction KTS MPH feet Rate Location/Type
04:10PM 39.1500 -76.6500 270° West 176 203 1,300  Level Potomac TRACON
04:11PM 39.1500 -76.7167 270° West 272 313 3,700 2,280 Climbing Potomac TRACON
04:12PM 39.1667 -76.8000 284° West 262 302 5,900 2,460 Climbing Potomac TRACON
04:14PM 39.2139 -76.9792 289° West 262 302 11,700 2,520 Climbing Washington Center
04:15PM 39.1942 -77.0700 254° West 254 292 14,000 2,100 Climbing Washington Center
04:16PM 39.1325 -77.1544 227° Southwest 261 300 15,900 2,160 Climbing Washington Center
04:17PM 39.0708 -77.2467 229° Southwest 302 348 18,400 2,220 Climbing Washington Center
04:18PM 39.0419 -77.3689 253° West 348 400 20,400 1,800 Climbing Washington Center
04:19PM 39.0150 -77.4992 255° West 364 419 22,100 1,860 Climbing Washington Center
04:20PM 38.9814 -77.6450 254° West 392 451 24,200 1,980 Climbing Washington Center
04:21PM 38.9519 -77.7803 254° West 397 457 26,100 1,680 Climbing Washington Center
04:22PM 38.9200 -77.9208 254° West 401 461 27,600 1,500 Climbing Washington Center
04:23PM 38.8903 -78.0558 254° West 401 461 29,200 1,500 Climbing Washington Center
04:24PM 38.8581 -78.1936 253° West 401 461 30,600 1,440 Climbing Washington Center
04:25PM 38.8508 -78.3400 266° West 401 461 32,100 1,440 Climbing Washington Center
04:26PM 38.8514 -78.4892 270° West 412 474 33,500 1,560 Climbing Washington Center
04:27PM 38.8500 -78.6358 269° West 412 474 35,300 1,200 Climbing Washington Center
04:28PM 38.8483 -78.7742 269° West 406 467 36,000 300 Climbing Washington Center
04:29PM 38.8467 -78.9103 269° West 399 459 36,000  Level Washington Center
04:30PM 38.8450 -79.0486 269° West 393 452 36,000  Level Washington Center
04:31PM 38.8431 -79.1844 269° West 393 452 36,000  Level Washington Center
04:32PM 38.8183 -79.3139 256° West 382 440 36,000  Level Washington Center
04:33PM 38.7997 -79.4408 259° West 377 434 36,000  Level Washington Center
04:34PM 38.7767 -79.5700 257° West 371 427 36,000  Level Washington Center
04:35PM 38.7561 -79.6889 258° West 371 427 36,000  Level Washington Center
04:36PM 38.7308 -79.8178 256° West 380 437 36,000  Level Washington Center
04:37PM 38.7075 -79.9442 257° West 374 430 36,000  Level Washington Center
04:39PM 38.6667 -80.1439 255° West 372 428 36,000  Level Indianapolis Center
04:40PM 38.6417 -80.2736 256° West 374 430 36,000  Level Indianapolis Center
04:41PM 38.6175 -80.4031 257° West 374 430 36,000  Level Indianapolis Center
04:42PM 38.5944 -80.5314 257° West 371 427 36,000  Level Indianapolis Center
04:43PM 38.5700 -80.6603 256° West 372 428 36,000  Level Indianapolis Center
04:44PM 38.5447 -80.7872 256° West 368 423 36,000  Level Indianapolis Center
04:45PM 38.5197 -80.9147 256° West 369 425 36,000  Level Indianapolis Center
04:46PM 38.4958 -81.0400 256° West 362 417 36,000  Level Indianapolis Center
04:47PM 38.4658 -81.1919 256° West 365 420 36,000  Level Indianapolis Center
04:48PM 38.4406 -81.3192 256° West 367 422 36,000  Level Indianapolis Center
04:49PM 38.4144 -81.4450 255° West 363 418 36,000  Level Indianapolis Center
04:50PM 38.3908 -81.5708 257° West 361 415 36,000  Level Indianapolis Center
04:51PM 38.3650 -81.6944 255° West 358 412 36,000  Level Indianapolis Center
04:52PM 38.3381 -81.8142 254° West 353 406 36,000  Level Indianapolis Center
04:53PM 38.3047 -81.9303 250° West 348 400 36,000  Level Indianapolis Center
04:54PM 38.2722 -82.0469 250° West 349 402 36,000  Level Indianapolis Center
04:55PM 38.2386 -82.1631 250° West 349 402 36,000  Level Indianapolis Center
04:56PM 38.2064 -82.2794 251° West 348 400 36,000  Level Indianapolis Center
04:57PM 38.1681 -82.4158 250° West 342 394 36,000  Level Indianapolis Center
04:58PM 38.1378 -82.5228 250° West 339 390 36,000  Level Indianapolis Center
04:59PM 38.1053 -82.6333 250° West 336 387 36,000  Level Indianapolis Center
05:00PM 38.0728 -82.7461 250° West 338 389 36,000  Level Indianapolis Center
05:01PM 38.0333 -82.8789 249° West 344 396 36,000  Level Indianapolis Center
05:02PM 38.0011 -82.9917 250° West 341 392 36,000  Level Indianapolis Center
05:03PM 37.9689 -83.1042 250° West 340 391 36,000  Level Indianapolis Center
05:04PM 37.9361 -83.2153 250° West 338 389 36,000  Level Indianapolis Center
05:05PM 37.9025 -83.3269 249° West 338 389 36,000  Level Indianapolis Center
05:06PM 37.8697 -83.4367 249° West 334 384 36,000  Level Indianapolis Center
05:07PM 37.8314 -83.5678 250° West 340 391 36,000  Level Indianapolis Center
05:08PM 37.7983 -83.6794 249° West 340 391 36,000  Level Indianapolis Center
05:09PM 37.7647 -83.7889 249° West 335 386 36,000  Level Indianapolis Center
05:10PM 37.7317 -83.8994 249° West 337 388 36,000  Level Indianapolis Center
05:11PM 37.6983 -84.0081 249° West 334 384 36,000 300 Level Indianapolis Center
05:12PM 37.6664 -84.1167 250° West 331 381 36,700 840 Climbing Indianapolis Center
05:14PM 37.6267 -84.2447 249° West 335 386 37,800 600 Climbing Indianapolis Center
05:15PM 37.5931 -84.3556 249° West 339 390 38,000 60 Climbing Indianapolis Center
05:16PM 37.5597 -84.4658 249° West 340 391 38,000  Level Indianapolis Center
05:17PM 37.5242 -84.5783 248° West 345 397 38,000  Level Indianapolis Center
05:18PM 37.4897 -84.6881 248° West 340 391 38,000  Level Indianapolis Center
05:19PM 37.4558 -84.7972 249° West 335 386 38,000  Level Indianapolis Center
05:20PM 37.4156 -84.9261 249° West 337 388 38,000  Level Indianapolis Center
05:21PM 37.3814 -85.0367 249° West 339 390 38,000  Level Indianapolis Center
05:22PM 37.3469 -85.1467 249° West 338 389 38,000  Level Indianapolis Center
05:23PM 37.3111 -85.2572 248° West 340 391 38,000  Level Indianapolis Center
05:24PM 37.2756 -85.3686 248° West 343 395 38,000  Level Indianapolis Center
05:25PM 37.2417 -85.4800 249° West 342 394 38,000  Level Indianapolis Center
05:26PM 37.2033 -85.5978 248° West 344 396 38,000  Level Indianapolis Center
05:27PM 37.1678 -85.7131 249° West 347 399 38,000  Level Memphis Center
05:28PM 37.1325 -85.8269 249° West 347 399 38,000  Level Memphis Center
05:29PM 37.0947 -85.9358 247° West 342 394 38,000  Level Memphis Center
05:30PM 37.0628 -86.0364 248° West 342 394 38,000  Level Memphis Center
05:31PM 37.0250 -86.1475 247° West 342 394 38,000  Level Memphis Center
05:32PM 36.9911 -86.2583 249° West 342 394 38,000  Level Memphis Center
05:33PM 36.9511 -86.3722 246° West 347 399 38,000  Level Memphis Center
05:34PM 36.9128 -86.4778 246° West 347 399 38,000  Level Memphis Center
05:35PM 36.8597 -86.5789 237° Southwest 347 399 38,000  Level Memphis Center
05:36PM 36.8064 -86.6800 237° Southwest 353 406 38,000  Level Memphis Center
05:37PM 36.7572 -86.7806 239° Southwest 348 400 38,000  Level Memphis Center
05:38PM 36.7039 -86.8814 237° Southwest 353 406 38,000  Level Memphis Center
05:39PM 36.6525 -86.9817 237° Southwest 353 406 38,000  Level Memphis Center
05:40PM 36.5950 -87.0903 237° Southwest 353 406 38,000  Level Memphis Center
05:41PM 36.5433 -87.1903 237° Southwest 353 406 38,000  Level Memphis Center
05:42PM 36.4897 -87.2931 237° Southwest 353 406 38,000  Level Memphis Center
05:43PM 36.4358 -87.3958 237° Southwest 353 406 38,000  Level Memphis Center
05:44PM 36.3819 -87.4931 235° Southwest 353 406 38,000  Level Memphis Center
05:45PM 36.3281 -87.5981 238° Southwest 353 406 38,000  Level Memphis Center
05:46PM 36.2739 -87.6978 236° Southwest 353 406 38,000  Level Memphis Center
05:47PM 36.2197 -87.7997 237° Southwest 353 406 38,000  Level Memphis Center
05:48PM 36.1656 -87.9017 237° Southwest 353 406 38,000  Level Memphis Center
05:49PM 36.1092 -88.0036 236° Southwest 358 412 38,000  Level Memphis Center
05:50PM 36.0547 -88.1053 237° Southwest 353 406 38,000  Level Memphis Center
05:51PM 36.0083 -88.1939 237° Southwest 353 406 38,000  Level Memphis Center
05:52PM 35.9517 -88.2928 235° Southwest 353 406 38,000  Level Memphis Center
05:53PM 35.8969 -88.3967 237° Southwest 353 406 38,000  Level Memphis Center
05:54PM 35.8403 -88.4981 235° Southwest 353 406 38,000  Level Memphis Center
05:55PM 35.7833 -88.5992 235° Southwest 358 412 38,000  Level Memphis Center
05:56PM 35.7264 -88.7025 236° Southwest 358 412 38,000  Level Memphis Center
05:57PM 35.6733 -88.8083 238° Southwest 363 418 38,000  Level Memphis Center
05:58PM 35.6122 -88.9192 236° Southwest 363 418 38,000  Level Memphis Center
05:59PM 35.5531 -89.0250 236° Southwest 368 423 38,000  Level Memphis Center
06:00PM 35.4975 -89.1253 236° Southwest 368 423 38,000  Level Memphis Center
06:01PM 35.4422 -89.2281 237° Southwest 373 429 38,000  Level Memphis Center
06:02PM 35.3847 -89.3333 236° Southwest 373 429 38,000  Level Memphis Center
06:03PM 35.3272 -89.4333 235° Southwest 378 435 38,000  Level Memphis Center
06:04PM 35.2694 -89.5381 236° Southwest 378 435 38,000  Level Memphis Center
06:05PM 35.2117 -89.6403 235° Southwest 378 435 38,000  Level Memphis Center
06:06PM 35.1561 -89.7400 236° Southwest 370 426 38,000  Level Memphis Center
06:07PM 35.1000 -89.8419 236° Southwest 370 426 38,000  Level Memphis Center
06:08PM 35.0442 -89.9436 236° Southwest 370 426 38,000  Level Memphis Center
06:09PM 34.9819 -90.0453 233° Southwest 375 432 38,000  Level Memphis Center
06:10PM 34.9194 -90.1419 232° Southwest 375 432 38,000  Level Memphis Center
06:11PM 34.8550 -90.2381 231° Southwest 375 432 38,000  Level Memphis Center
06:12PM 34.7967 -90.3344 234° Southwest 369 425 38,000  Level Memphis Center
06:13PM 34.7361 -90.4328 233° Southwest 369 425 38,000  Level Memphis Center
06:14PM 34.6817 -90.5214 233° Southwest 369 425 38,000  Level Memphis Center
06:15PM 34.6211 -90.6194 233° Southwest 369 425 38,000  Level Memphis Center
06:16PM 34.5603 -90.7178 233° Southwest 364 419 38,000  Level Memphis Center
06:17PM 34.5017 -90.8133 233° Southwest 364 419 38,000  Level Memphis Center
06:18PM 34.4428 -90.9111 234° Southwest 364 419 38,000  Level Memphis Center
06:19PM 34.3797 -91.0089 232° Southwest 364 419 38,000  Level Memphis Center
06:20PM 34.3186 -91.1042 232° Southwest 364 419 38,000  Level Memphis Center
06:21PM 34.2511 -91.2089 232° Southwest 364 419 38,000  Level Memphis Center
06:22PM 34.1878 -91.3089 233° Southwest 364 419 38,000  Level Memphis Center
06:23PM 34.1286 -91.4036 233° Southwest 364 419 38,000  Level Memphis Center
06:24PM 34.0672 -91.5006 233° Southwest 364 419 38,000  Level Memphis Center
06:25PM 34.0058 -91.5950 232° Southwest 364 419 38,000  Level Memphis Center
06:26PM 33.9486 -91.6919 235° Southwest 364 419 38,000  Level Memphis Center
06:27PM 33.8869 -91.7836 231° Southwest 364 419 38,000  Level Memphis Center
06:28PM 33.8256 -91.8775 232° Southwest 364 419 38,000  Level Memphis Center
06:29PM 33.7636 -91.9714 232° Southwest 364 419 38,000  Level Memphis Center
06:30PM 33.7042 -92.0653 233° Southwest 364 419 38,000  Level Memphis Center
06:31PM 33.6322 -92.1747 232° Southwest 368 423 38,000  Level Fort Worth Center
06:32PM 33.5714 -92.2706 233° Southwest 375 432 38,000  Level Fort Worth Center
06:33PM 33.5064 -92.3642 230° Southwest 375 432 38,000  Level Fort Worth Center
06:34PM 33.4475 -92.4594 233° Southwest 375 432 38,000  Level Fort Worth Center
06:35PM 33.3844 -92.5528 231° Southwest 370 426 38,000  Level Fort Worth Center
06:36PM 33.3233 -92.6456 232° Southwest 365 420 38,000  Level Fort Worth Center
06:37PM 33.2578 -92.7383 230° Southwest 360 414 38,000  Level Fort Worth Center
06:38PM 33.1814 -92.8144 220° Southwest 354 407 38,000  Level Fort Worth Center
06:39PM 33.1028 -92.8903 219° Southwest 367 422 38,000  Level Fort Worth Center
06:40PM 33.0342 -92.9583 220° Southwest 367 422 38,000  Level Fort Worth Center
06:41PM 32.9533 -93.0342 218° Southwest 367 422 38,000  Level Fort Worth Center
06:42PM 32.8767 -93.1094 220° Southwest 362 417 38,000  Level Fort Worth Center
06:43PM 32.7978 -93.1825 218° Southwest 362 417 38,000  Level Fort Worth Center
06:44PM 32.7189 -93.2578 219° Southwest 362 417 38,000  Level Fort Worth Center
06:45PM 32.6378 -93.3356 219° Southwest 367 422 38,000  Level Fort Worth Center
06:46PM 32.5589 -93.4106 219° Southwest 367 422 38,000  Level Fort Worth Center
06:47PM 32.4800 -93.4856 219° Southwest 367 422 38,000  Level Fort Worth Center
06:48PM 32.3986 -93.5606 218° Southwest 367 422 38,000  Level Fort Worth Center
06:49PM 32.3217 -93.6350 219° Southwest 362 417 38,000  Level Fort Worth Center
06:50PM 32.2425 -93.7094 219° Southwest 362 417 38,000  Level Fort Worth Center
06:51PM 32.1572 -93.7964 221° Southwest 362 417 38,000  Level Fort Worth Center
06:52PM 32.0800 -93.8706 219° Southwest 362 417 38,000  Level Fort Worth Center
06:54PM 31.9025 -94.0336 218° Southwest 361 415 38,000  Level Houston Center
06:55PM 31.8236 -94.1067 218° Southwest 361 415 38,000  Level Houston Center
06:56PM 31.7483 -94.1772 219° Southwest 362 417 38,000  Level Houston Center
06:57PM 31.6528 -94.2653 218° Southwest 364 419 38,000  Level Houston Center
06:58PM 31.5728 -94.3394 218° Southwest 364 419 38,000  Level Houston Center
06:59PM 31.4942 -94.4119 218° Southwest 361 415 38,000  Level Houston Center
07:00PM 31.4097 -94.4894 218° Southwest 363 418 38,000  Level Houston Center
07:02PM 31.3356 -94.5581 218° Southwest 358 412 38,000  Level Houston Center
07:03PM 31.2536 -94.6331 218° Southwest 360 414 38,000  Level Houston Center
07:04PM 31.1739 -94.7072 219° Southwest 365 420 38,000  Level Houston Center
07:05PM 31.0967 -94.7861 221° Southwest 356 410 38,000  Level Houston Center
07:06PM 31.0111 -94.8794 223° Southwest 351 404 38,000  Level Houston Center
07:07PM 30.9403 -94.9561 223° Southwest 347 399 38,000  Level Houston Center
07:08PM 30.8689 -95.0333 223° Southwest 349 402 38,000  Level Houston Center
07:09PM 30.7964 -95.1114 223° Southwest 353 406 38,000  Level Houston Center
07:10PM 30.7239 -95.1883 222° Southwest 354 407 38,000  Level Houston Center
07:11PM 30.6508 -95.2658 222° Southwest 354 407 38,000  Level Houston Center
07:12PM 30.5636 -95.3583 222° Southwest 354 407 38,000  Level Houston Center
07:13PM 30.4953 -95.4311 223° Southwest 355 409 38,000  Level Houston Center
07:14PM 30.4228 -95.5078 222° Southwest 355 409 38,000  Level Houston Center
07:15PM 30.3503 -95.5850 223° Southwest 356 410 38,000  Level Houston Center
07:16PM 30.2792 -95.6614 223° Southwest 352 405 38,000  Level Houston Center
07:17PM 30.1925 -95.7511 222° Southwest 351 404 38,000  Level Houston Center
07:18PM 30.1203 -95.8256 222° Southwest 350 403 38,000  Level Houston Center
07:19PM 30.0483 -95.9017 222° Southwest 353 406 38,000  Level Houston Center
07:20PM 29.9764 -95.9767 222° Southwest 351 404 38,000  Level Houston Center
07:21PM 29.8983 -96.0578 222° Southwest 351 404 38,000  Level Houston Center
07:22PM 29.8264 -96.1319 222° Southwest 348 400 38,000  Level Houston Center
07:23PM 29.7808 -96.2217 240° Southwest 338 389 38,000  Level Houston Center
07:24PM 29.7914 -96.3481 276° West 330 380 38,000  Level Houston Center
07:25PM 29.7997 -96.4525 275° West 330 380 38,000  Level Houston Center
07:26PM 29.8061 -96.5572 274° West 331 381 38,000 -240 Level Houston Center
07:27PM 29.8147 -96.6608 275° West 327 376 37,600 -1,620 Descending Houston Center
07:28PM 29.8219 -96.7633 275° West 325 374 34,700 -2,880 Descending Houston Center
07:29PM 29.8306 -96.8894 275° West 331 381 31,600 -2,460 Descending Houston Center
07:31PM 29.8389 -96.9917 275° West 324 373 29,600 -1,980 Descending Houston Center
07:32PM 29.8456 -97.0922 274° West 317 365 27,600 -1,920 Descending Houston Center
07:33PM 29.8522 -97.1894 275° West 310 357 25,700 -1,920 Descending Houston Center
07:34PM 29.8597 -97.2883 275° West 312 359 23,700 -2,160 Descending Houston Center
07:35PM 29.8678 -97.4122 274° West 324 373 21,300 -2,100 Descending Houston Center
07:36PM 29.8753 -97.5161 275° West 328 377 19,400 -1,860 Descending Houston Center
07:36PM 29.8792 -97.5942 273° West 325 374 18,100 -1,680 Descending Houston Center
07:37PM 29.8817 -97.6267 275° West 322 371 17,700 -1,920 Descending Houston Center
07:37PM 29.8869 -97.6967 275° West 317 365 16,200 -2,040 Descending Houston Center
07:38PM 29.8881 -97.7264 272° West 315 362 15,600 -2,100 Descending Houston Center
07:38PM 29.8922 -97.7950 274° West 314 361 14,100 -2,160 Descending Houston Center
07:39PM 29.8953 -97.8339 275° West 313 360 13,400 -1,320 Descending Houston Center
07:39PM 29.8850 -97.8947 259° West 312 359 12,800 -1,020 Descending Houston Center
07:40PM 29.8706 -97.9283 244° Southwest 309 356 12,400 -1,500 Descending Houston Center
07:40PM 29.8436 -97.9892 243° Southwest 314 361 11,300 -1,800 Descending Houston Center
07:41PM 29.8289 -98.0244 244° Southwest 313 360 10,600 -1,140 Descending Houston Center
07:41PM 29.7989 -98.0694 232° Southwest 302 348 10,200 -600 Descending Houston Center
07:42PM 29.7692 -98.0814 199° South 294 338 10,000 -900 Descending Houston Center
07:42PM 29.7261 -98.1000 201° Southwest 274 315 9,300 -1,260 Descending Houston Center
07:43PM 29.6911 -98.1136 199° South 279 321 8,700 -1,320 Descending Houston Center
07:43PM 29.6511 -98.1286 198° South 275 316 8,000 -1,260 Descending Houston Center
07:44PM 29.6186 -98.1417 199° South 275 316 7,400 -1,320 Descending Houston Center
07:45PM 29.5781 -98.1569 198° South 277 319 6,700 -1,020 Descending Houston Center
07:45PM 29.5467 -98.1711 201° Southwest 272 313 6,400 -600 Descending Houston Center
07:46PM 29.5114 -98.1844 198° South 247 284 6,100 -780 Descending Houston Center
07:46PM 29.4803 -98.2014 205° Southwest 242 278 5,600 -1,020 Descending Houston Center
07:47PM 29.4569 -98.2294 226° Southwest 220 253 5,100 -900 Descending Houston Center
07:47PM 29.4469 -98.2594 249° West 222 255 4,700 -900 Descending Houston Center
07:48PM 29.4461 -98.2956 268° West 207 238 4,200 -1,080 Descending Houston Center
07:48PM 29.4500 -98.3303 277° West 206 237 3,600 -1,140 Descending Houston Center
07:49PM 29.4519 -98.3572 275° West 196 226 3,100 -1,020 Descending Houston Center
07:49PM 29.4639 -98.3844 297° West 181 208 2,600 -840 Descending Houston Center
07:50PM 29.4772 -98.4022 311° West 159 183 2,300 -780 Descending Houston Center
07:50PM 29.4964 -98.4250 314° West 162 186 1,800 -840 Descending Houston Center
07:51PM 29.5033 -98.4375 303° West 135 155 1,500 -780 Descending Houston Center
07:51PM 29.5214 -98.4572 316° Northwest 140 161 1,000 -840 Descending Houston Center